Time;durP1;ratioP1;P1;durP2;ratioP2;P2;SDS_P1;SDS_P2;PMS_P1;PMS_P2;Temp;Humidity;BMP_temperature;BMP_pressure;BME280_temperature;BME280_humidity;BME280_pressure;Samples;Min_cycle;Max_cycle;Signal;HPM_P1;HPM_P2
2021/03/14 00:00:20;;;;;;;19.13;11.55;;;;;;;;;;5032403;28;20112;-58
2021/03/14 00:02:46;;;;;;;16.40;11.88;;;;;;;;;;5032270;28;20471;-58
2021/03/14 00:05:11;;;;;;;20.67;12.75;;;;;;;;;;5031600;28;20052;-58
2021/03/14 00:07:37;;;;;;;13.23;10.23;;;;;;;;;;5031772;28;20045;-58
2021/03/14 00:10:03;;;;;;;19.42;14.45;;;;;;;;;;5031364;28;20064;-58
2021/03/14 00:12:28;;;;;;;28.38;17.90;;;;;;;;;;5026600;28;20017;-58
2021/03/14 00:14:53;;;;;;;18.15;14.00;;;;;;;;;;5031916;28;20518;-58
2021/03/14 00:17:18;;;;;;;20.55;18.42;;;;;;;;;;5031626;28;20021;-58
2021/03/14 00:19:44;;;;;;;20.55;17.25;;;;;;;;;;5031218;28;20171;-58
2021/03/14 00:22:09;;;;;;;19.38;14.43;;;;;;;;;;5017003;28;20068;-58
2021/03/14 00:24:36;;;;;;;18.33;16.38;;;;;;;;;;5016886;28;20038;-58
2021/03/14 00:27:01;;;;;;;21.20;15.02;;;;;;;;;;5017869;28;20014;-58
2021/03/14 00:29:28;;;;;;;18.60;14.73;;;;;;;;;;5020443;28;20060;-58
2021/03/14 00:31:53;;;;;;;16.65;14.93;;;;;;;;;;5019361;28;20029;-58
2021/03/14 00:34:18;;;;;;;15.68;14.07;;;;;;;;;;5012380;28;20095;-58
2021/03/14 00:36:43;;;;;;;17.50;13.82;;;;;;;;;;5019303;28;20805;-58
2021/03/14 00:39:09;;;;;;;17.75;14.80;;;;;;;;;;5020069;28;20404;-58
2021/03/14 00:41:34;;;;;;;18.00;16.23;;;;;;;;;;5029113;28;20017;-58
2021/03/14 00:43:59;;;;;;;16.25;12.73;;;;;;;;;;5030719;28;20119;-57
2021/03/14 00:46:26;;;;;;;15.10;11.90;;;;;;;;;;5031145;28;20084;-58
2021/03/14 00:48:52;;;;;;;18.95;16.02;;;;;;;;;;5030816;28;20033;-58
2021/03/14 00:51:17;;;;;;;21.55;14.43;;;;;;;;;;5024067;28;20028;-58
2021/03/14 00:53:42;;;;;;;20.83;13.50;;;;;;;;;;5030685;28;20029;-58
2021/03/14 00:56:08;;;;;;;22.02;15.07;;;;;;;;;;5026696;28;20072;-58
2021/03/14 00:58:33;;;;;;;29.15;16.90;;;;;;;;;;5031532;28;20038;-57
2021/03/14 01:00:59;;;;;;;18.67;16.77;;;;;;;;;;5027655;28;20411;-58
2021/03/14 01:03:24;;;;;;;26.45;18.73;;;;;;;;;;5030234;28;20525;-58
2021/03/14 01:05:49;;;;;;;16.98;15.40;;;;;;;;;;5031278;28;20120;-58
2021/03/14 01:08:18;;;;;;;14.63;12.95;;;;;;;;;;5030693;28;20131;-58
2021/03/14 01:10:44;;;;;;;16.38;12.93;;;;;;;;;;5031147;28;20027;-58
2021/03/14 01:13:09;;;;;;;18.98;13.52;;;;;;;;;;5030968;28;20021;-58
2021/03/14 01:15:34;;;;;;;20.73;16.15;;;;;;;;;;5030271;28;20121;-58
2021/03/14 01:18:00;;;;;;;17.73;14.80;;;;;;;;;;5030468;28;20091;-58
2021/03/14 01:20:25;;;;;;;19.27;13.57;;;;;;;;;;5028970;28;20446;-58
2021/03/14 01:22:51;;;;;;;18.10;12.10;;;;;;;;;;5025799;28;20029;-56
2021/03/14 01:25:16;;;;;;;19.60;14.10;;;;;;;;;;5030554;28;20036;-58
2021/03/14 01:27:47;;;;;;;14.57;12.50;;;;;;;;;;5012786;28;20116;-57
2021/03/14 01:30:19;;;;;;;20.73;13.35;;;;;;;;;;5029950;28;20179;-58
2021/03/14 01:32:45;;;;;;;18.52;12.25;;;;;;;;;;5023088;28;20037;-58
2021/03/14 01:35:11;;;;;;;18.58;13.50;;;;;;;;;;5029404;28;20407;-57
2021/03/14 01:37:36;;;;;;;18.90;13.57;;;;;;;;;;5028808;28;20033;-58
2021/03/14 01:40:02;;;;;;;26.25;13.35;;;;;;;;;;5026818;28;20456;-59
2021/03/14 01:42:28;;;;;;;17.30;13.02;;;;;;;;;;5024853;28;20041;-58
2021/03/14 01:44:53;;;;;;;27.50;13.73;;;;;;;;;;5029853;28;20029;-58
2021/03/14 01:47:20;;;;;;;16.30;13.02;;;;;;;;;;5029987;28;20030;-59
2021/03/14 01:49:45;;;;;;;14.70;13.30;;;;;;;;;;5029854;28;20050;-58
2021/03/14 01:52:10;;;;;;;14.43;13.02;;;;;;;;;;5030176;28;20025;-59
2021/03/14 01:54:36;;;;;;;16.63;12.40;;;;;;;;;;5029992;28;20490;-58
2021/03/14 01:57:01;;;;;;;21.63;12.07;;;;;;;;;;5030045;28;20084;-58
2021/03/14 01:59:27;;;;;;;16.65;14.07;;;;;;;;;;5029664;28;20061;-58
2021/03/14 02:01:53;;;;;;;17.92;11.02;;;;;;;;;;5029432;28;20028;-58
2021/03/14 02:04:18;;;;;;;12.23;10.60;;;;;;;;;;5029277;28;20033;-58
2021/03/14 02:06:43;;;;;;;14.27;10.32;;;;;;;;;;5029650;28;20108;-58
2021/03/14 02:09:08;;;;;;;18.08;10.10;;;;;;;;;;5029539;28;20041;-57
2021/03/14 02:11:35;;;;;;;11.80;10.35;;;;;;;;;;5029392;28;20029;-58
2021/03/14 02:14:02;;;;;;;11.68;9.38;;;;;;;;;;5027245;28;20025;-58
2021/03/14 02:16:39;;;;;;;10.65;9.55;;;;;;;;;;5029864;28;20478;-58
2021/03/14 02:19:07;;;;;;;13.80;9.15;;;;;;;;;;5025083;28;20052;-58
2021/03/14 02:21:34;;;;;;;12.57;9.43;;;;;;;;;;5018915;28;20526;-58
2021/03/14 02:24:01;;;;;;;11.27;9.45;;;;;;;;;;5029598;28;20029;-58
2021/03/14 02:26:28;;;;;;;17.42;10.35;;;;;;;;;;5027688;28;20072;-57
2021/03/14 02:28:55;;;;;;;13.52;10.40;;;;;;;;;;5029085;28;20089;-58
2021/03/14 02:31:21;;;;;;;9.13;7.82;;;;;;;;;;5028983;28;20076;-58
2021/03/14 02:33:48;;;;;;;9.88;8.00;;;;;;;;;;5029294;28;20430;-58
2021/03/14 02:36:14;;;;;;;8.30;6.63;;;;;;;;;;5026226;28;20022;-57
2021/03/14 02:38:41;;;;;;;7.88;6.70;;;;;;;;;;5029327;28;20025;-58
2021/03/14 02:41:06;;;;;;;11.70;6.60;;;;;;;;;;5028714;28;20033;-58
2021/03/14 02:43:32;;;;;;;12.98;5.68;;;;;;;;;;5028568;28;20079;-58
2021/03/14 02:45:57;;;;;;;8.00;4.93;;;;;;;;;;5026157;28;20064;-58
2021/03/14 02:48:23;;;;;;;7.47;5.65;;;;;;;;;;5025616;28;20033;-59
2021/03/14 02:50:49;;;;;;;9.82;5.47;;;;;;;;;;5024640;28;20086;-58
2021/03/14 02:53:15;;;;;;;17.80;6.88;;;;;;;;;;5028654;28;20025;-57
2021/03/14 02:55:41;;;;;;;6.95;5.25;;;;;;;;;;5029169;28;20029;-58
2021/03/14 02:58:07;;;;;;;13.98;6.93;;;;;;;;;;5029034;28;20033;-57
2021/03/14 03:00:34;;;;;;;13.95;7.95;;;;;;;;;;5029243;28;20073;-58
2021/03/14 03:03:00;;;;;;;7.55;6.85;;;;;;;;;;5029050;28;20124;-58
2021/03/14 03:05:26;;;;;;;7.05;6.28;;;;;;;;;;5029052;28;20033;-57
2021/03/14 03:07:52;;;;;;;6.65;5.45;;;;;;;;;;5029023;28;20125;-58
2021/03/14 03:10:18;;;;;;;7.40;4.35;;;;;;;;;;5028790;28;20132;-58
2021/03/14 03:12:45;;;;;;;4.35;3.20;;;;;;;;;;5026711;28;20152;-57
2021/03/14 03:15:11;;;;;;;6.57;3.25;;;;;;;;;;5028499;28;20053;-58
2021/03/14 03:17:37;;;;;;;4.28;3.88;;;;;;;;;;5031892;28;20056;-58
2021/03/14 03:20:03;;;;;;;5.85;4.72;;;;;;;;;;5033037;28;20040;-58
2021/03/14 03:22:28;;;;;;;6.40;4.68;;;;;;;;;;5032941;28;20028;-58
2021/03/14 03:24:54;;;;;;;5.25;3.42;;;;;;;;;;5032305;28;20049;-56
2021/03/14 03:27:19;;;;;;;4.97;3.17;;;;;;;;;;5031907;28;20033;-58
2021/03/14 03:29:45;;;;;;;12.57;6.53;;;;;;;;;;5031941;28;20060;-57
2021/03/14 03:32:10;;;;;;;8.15;4.70;;;;;;;;;;5014362;28;20070;-58
2021/03/14 03:34:36;;;;;;;9.15;5.88;;;;;;;;;;5032588;28;20037;-58
2021/03/14 03:37:01;;;;;;;9.40;7.10;;;;;;;;;;5032066;28;20175;-58
2021/03/14 03:39:26;;;;;;;9.95;7.53;;;;;;;;;;5029856;28;20034;-57
2021/03/14 03:41:56;;;;;;;19.50;7.05;;;;;;;;;;5026592;28;20075;-58
2021/03/14 03:44:23;;;;;;;13.57;8.05;;;;;;;;;;5029717;28;20037;-58
2021/03/14 03:46:50;;;;;;;7.80;6.00;;;;;;;;;;5014844;28;20030;-57
2021/03/14 03:49:17;;;;;;;6.60;5.57;;;;;;;;;;5028128;28;20072;-58
2021/03/14 03:51:42;;;;;;;6.22;4.68;;;;;;;;;;5032594;28;20071;-58
2021/03/14 03:54:09;;;;;;;7.43;4.75;;;;;;;;;;5026458;28;20041;-58
2021/03/14 03:56:35;;;;;;;12.10;5.85;;;;;;;;;;5032062;28;20064;-58
2021/03/14 03:59:02;;;;;;;7.00;5.07;;;;;;;;;;5031226;28;20069;-57
2021/03/14 04:01:27;;;;;;;5.65;3.58;;;;;;;;;;5032211;28;20439;-58
2021/03/14 04:03:54;;;;;;;6.75;6.05;;;;;;;;;;5032051;28;20052;-58
2021/03/14 04:08:54;;;;;;;4.45;4.00;;;;;;;;;;5160247;22;20084;-57
2021/03/14 04:11:20;;;;;;;6.55;4.97;;;;;;;;;;5045306;28;20072;-56
2021/03/14 04:13:46;;;;;;;9.85;3.80;;;;;;;;;;5051798;28;20028;-55
2021/03/14 04:16:12;;;;;;;6.40;3.30;;;;;;;;;;5352723;22;20097;-57
2021/03/14 04:18:38;;;;;;;6.43;2.75;;;;;;;;;;5004617;28;20451;-57
2021/03/14 04:21:05;;;;;;;6.57;3.63;;;;;;;;;;5012065;28;20037;-55
2021/03/14 04:23:31;;;;;;;7.38;4.53;;;;;;;;;;5012071;28;20064;-53
2021/03/14 04:25:57;;;;;;;4.38;3.22;;;;;;;;;;5012040;28;20033;-51
2021/03/14 04:28:24;;;;;;;6.57;4.07;;;;;;;;;;5011096;28;20108;-53
2021/03/14 04:30:50;;;;;;;4.93;3.80;;;;;;;;;;5010621;28;20065;-55
2021/03/14 04:33:17;;;;;;;4.65;3.22;;;;;;;;;;5011061;28;20021;-56
2021/03/14 04:35:43;;;;;;;11.38;3.78;;;;;;;;;;5011384;28;20029;-55
2021/03/14 04:38:08;;;;;;;4.68;3.53;;;;;;;;;;5011278;28;20030;-58
2021/03/14 04:40:34;;;;;;;4.72;2.55;;;;;;;;;;5008465;28;20589;-57
2021/03/14 04:43:01;;;;;;;4.30;3.28;;;;;;;;;;5011548;28;20013;-55
2021/03/14 04:45:26;;;;;;;3.90;2.10;;;;;;;;;;5005180;28;20036;-54
2021/03/14 04:47:51;;;;;;;10.27;2.53;;;;;;;;;;5005676;28;20112;-55
2021/03/14 04:50:19;;;;;;;9.55;5.82;;;;;;;;;;5011197;28;20470;-57
2021/03/14 04:52:45;;;;;;;9.18;5.65;;;;;;;;;;5011338;28;20064;-56
2021/03/14 04:55:12;;;;;;;6.00;4.07;;;;;;;;;;5011158;28;20065;-54
2021/03/14 04:57:38;;;;;;;8.07;5.63;;;;;;;;;;5011028;28;20025;-54
2021/03/14 05:00:06;;;;;;;13.05;4.30;;;;;;;;;;5010771;28;20030;-54
2021/03/14 05:02:31;;;;;;;9.23;5.03;;;;;;;;;;5011295;28;20026;-57
2021/03/14 05:04:58;;;;;;;7.30;4.70;;;;;;;;;;5010492;28;20522;-54
2021/03/14 05:07:24;;;;;;;4.30;2.72;;;;;;;;;;5010996;28;20042;-55
2021/03/14 05:09:49;;;;;;;7.90;3.95;;;;;;;;;;4993226;28;20109;-58
2021/03/14 05:12:17;;;;;;;6.03;2.53;;;;;;;;;;5010726;28;20028;-56
2021/03/14 05:14:42;;;;;;;6.90;2.28;;;;;;;;;;5010703;28;20108;-54
2021/03/14 05:17:08;;;;;;;3.25;1.67;;;;;;;;;;5010755;28;20058;-56
2021/03/14 05:19:33;;;;;;;3.88;1.67;;;;;;;;;;5010610;28;20510;-57
2021/03/14 05:21:59;;;;;;;5.15;2.28;;;;;;;;;;5010937;28;20034;-56
2021/03/14 05:24:25;;;;;;;2.28;0.85;;;;;;;;;;5010570;28;20089;-55
2021/03/14 05:26:51;;;;;;;3.10;2.00;;;;;;;;;;5010756;28;20080;-57
2021/03/14 05:29:16;;;;;;;4.45;1.98;;;;;;;;;;5010151;28;20702;-57
2021/03/14 05:31:42;;;;;;;4.70;2.17;;;;;;;;;;5010535;28;20080;-56
2021/03/14 05:34:08;;;;;;;4.30;2.33;;;;;;;;;;5010529;28;20093;-56
2021/03/14 05:36:34;;;;;;;5.07;2.55;;;;;;;;;;5010428;28;20026;-56
2021/03/14 05:39:00;;;;;;;2.35;1.48;;;;;;;;;;5009275;28;20384;-58
2021/03/14 05:41:26;;;;;;;3.50;2.03;;;;;;;;;;5010473;28;20026;-57
2021/03/14 05:43:52;;;;;;;2.88;1.85;;;;;;;;;;4992736;28;20474;-57
2021/03/14 05:46:17;;;;;;;5.65;2.50;;;;;;;;;;5009929;28;20044;-58
2021/03/14 05:48:43;;;;;;;10.85;2.70;;;;;;;;;;5010177;28;20033;-56
2021/03/14 05:51:09;;;;;;;4.53;2.35;;;;;;;;;;5001837;28;20082;-56
2021/03/14 05:53:38;;;;;;;4.55;2.85;;;;;;;;;;5010144;28;20395;-56
2021/03/14 05:56:04;;;;;;;3.13;1.88;;;;;;;;;;5010283;28;20075;-58
2021/03/14 05:58:30;;;;;;;2.10;1.48;;;;;;;;;;5009723;28;20058;-57
2021/03/14 06:00:56;;;;;;;5.97;2.60;;;;;;;;;;5010065;28;20072;-54
2021/03/14 06:03:21;;;;;;;2.55;1.20;;;;;;;;;;4992261;28;20365;-54
2021/03/14 06:05:47;;;;;;;2.92;1.27;;;;;;;;;;5009858;28;20037;-57
2021/03/14 06:08:12;;;;;;;6.13;2.78;;;;;;;;;;5010019;28;20031;-56
2021/03/14 06:10:37;;;;;;;5.22;2.13;;;;;;;;;;5009468;28;20053;-55
2021/03/14 06:13:03;;;;;;;2.97;1.95;;;;;;;;;;5009847;28;20427;-59
2021/03/14 06:15:28;;;;;;;3.55;1.98;;;;;;;;;;5009627;28;20037;-57
2021/03/14 06:17:53;;;;;;;8.05;3.05;;;;;;;;;;5009901;28;20376;-54
2021/03/14 06:20:35;;;;;;;16.58;2.45;;;;;;;;;;5009675;28;20038;-56
2021/03/14 06:23:08;;;;;;;7.18;3.05;;;;;;;;;;5009682;28;20029;-57
2021/03/14 06:25:33;;;;;;;5.32;2.83;;;;;;;;;;5009201;28;20501;-59
2021/03/14 06:27:58;;;;;;;4.78;2.92;;;;;;;;;;5009834;28;20022;-54
2021/03/14 06:30:25;;;;;;;6.93;4.15;;;;;;;;;;5009097;28;20046;-57
2021/03/14 06:33:08;;;;;;;9.90;5.90;;;;;;;;;;5009321;28;20028;-57
2021/03/14 06:35:38;;;;;;;8.35;4.72;;;;;;;;;;5009188;28;20049;-55
2021/03/14 06:38:22;;;;;;;7.82;3.30;;;;;;;;;;5006399;28;20031;-58
2021/03/14 06:40:48;;;;;;;13.93;3.65;;;;;;;;;;5005627;28;20034;-58
2021/03/14 06:43:14;;;;;;;14.82;4.93;;;;;;;;;;5009366;28;20117;-56
2021/03/14 06:45:41;;;;;;;5.35;2.85;;;;;;;;;;5009437;28;20109;-53
2021/03/14 06:48:07;;;;;;;4.93;3.05;;;;;;;;;;5008155;28;20028;-56
2021/03/14 06:50:32;;;;;;;15.13;12.65;;;;;;;;;;5008710;28;20041;-59
2021/03/14 06:53:19;;;;;;;13.02;4.72;;;;;;;;;;5009334;28;20349;-56
2021/03/14 06:55:45;;;;;;;8.48;5.07;;;;;;;;;;5009225;28;20038;-53
2021/03/14 06:58:24;;;;;;;8.63;5.53;;;;;;;;;;5008875;28;20030;-57
2021/03/14 07:01:08;;;;;;;5.70;4.65;;;;;;;;;;5009264;28;20065;-56
2021/03/14 07:03:34;;;;;;;9.18;5.97;;;;;;;;;;5008902;28;20368;-58
2021/03/14 07:06:16;;;;;;;6.28;4.38;;;;;;;;;;5009205;28;20034;-56
2021/03/14 07:08:42;;;;;;;10.82;4.55;;;;;;;;;;5008750;28;20048;-57
2021/03/14 07:11:08;;;;;;;7.50;5.15;;;;;;;;;;5008516;28;20041;-56
2021/03/14 07:13:34;;;;;;;6.45;4.10;;;;;;;;;;5008657;28;20034;-56
2021/03/14 09:02:54;;;;;;;10.27;4.18;;;;;;;;;;5171149;22;20419;-51
2021/03/14 09:05:21;;;;;;;5.90;3.75;;;;;;;;;;5017060;28;20034;-54
2021/03/14 09:07:57;;;;;;;10.77;3.70;;;;;;;;;;5019494;28;20036;-51
2021/03/14 09:10:22;;;;;;;7.85;3.70;;;;;;;;;;5016945;28;20038;-52
2021/03/14 09:12:58;;;;;;;8.57;3.25;;;;;;;;;;5017824;28;20131;-52
2021/03/14 09:15:23;;;;;;;3.88;3.28;;;;;;;;;;5017070;28;20029;-52
2021/03/14 09:17:49;;;;;;;6.65;2.92;;;;;;;;;;5018407;28;20029;-53
2021/03/14 09:20:15;;;;;;;12.43;4.03;;;;;;;;;;5016453;28;20029;-49
2021/03/14 09:22:40;;;;;;;12.90;5.00;;;;;;;;;;5018363;28;20026;-51
2021/03/14 09:25:07;;;;;;;6.20;3.20;;;;;;;;;;5012803;28;20483;-50
2021/03/14 09:27:36;;;;;;;3.65;2.50;;;;;;;;;;5012999;28;20026;-51
2021/03/14 09:30:08;;;;;;;5.82;3.08;;;;;;;;;;5028406;28;20071;-53
2021/03/14 09:32:41;;;;;;;5.95;2.92;;;;;;;;;;5020528;28;20045;-54
2021/03/14 09:35:09;;;;;;;7.10;3.90;;;;;;;;;;5019315;28;20026;-53
2021/03/14 09:37:35;;;;;;;2.63;1.42;;;;;;;;;;5002902;28;20118;-53
2021/03/14 09:40:12;;;;;;;1.77;1.42;;;;;;;;;;5019338;28;20451;-57
2021/03/14 09:42:37;;;;;;;6.07;1.80;;;;;;;;;;5002198;28;20426;-51
2021/03/14 09:45:10;;;;;;;7.15;2.00;;;;;;;;;;5019271;28;20021;-56
2021/03/14 09:47:36;;;;;;;3.83;1.92;;;;;;;;;;5019518;28;20033;-51
2021/03/14 09:50:03;;;;;;;2.05;0.88;;;;;;;;;;5014315;28;20053;-55
2021/03/14 09:52:28;;;;;;;0.90;0.70;;;;;;;;;;5015831;28;20118;-50
2021/03/14 09:54:53;;;;;;;2.75;0.77;;;;;;;;;;5015159;28;20100;-51
2021/03/14 09:57:20;;;;;;;6.03;1.55;;;;;;;;;;5016772;28;20088;-54
2021/03/14 09:59:45;;;;;;;2.38;1.48;;;;;;;;;;4998572;28;20819;-53
2021/03/14 10:02:11;;;;;;;5.45;2.30;;;;;;;;;;5011597;28;20052;-56
2021/03/14 10:04:48;;;;;;;4.45;3.70;;;;;;;;;;5021240;28;20557;-54
2021/03/14 10:07:21;;;;;;;3.55;1.77;;;;;;;;;;5019935;28;20036;-47
2021/03/14 10:09:46;;;;;;;7.20;2.08;;;;;;;;;;5021889;28;20029;-53
2021/03/14 10:12:12;;;;;;;3.83;1.77;;;;;;;;;;5020155;28;20375;-53
2021/03/14 10:14:37;;;;;;;15.45;1.58;;;;;;;;;;5021479;28;20018;-47
2021/03/14 10:17:03;;;;;;;11.35;2.05;;;;;;;;;;5020432;28;20029;-51
2021/03/14 10:19:28;;;;;;;5.07;1.95;;;;;;;;;;5021869;28;20610;-55
2021/03/14 10:21:54;;;;;;;5.50;2.28;;;;;;;;;;4998476;28;20075;-54
2021/03/14 10:24:24;;;;;;;3.00;1.33;;;;;;;;;;5011151;28;20419;-52
2021/03/14 10:26:56;;;;;;;6.55;2.28;;;;;;;;;;5011142;28;20108;-55
2021/03/14 10:29:22;;;;;;;3.55;0.70;;;;;;;;;;5013406;28;20034;-54
2021/03/14 10:31:48;;;;;;;6.15;2.47;;;;;;;;;;5018994;28;20033;-55
2021/03/14 10:34:17;;;;;;;2.05;1.35;;;;;;;;;;5022624;28;20025;-51
2021/03/14 10:36:43;;;;;;;1.73;1.63;;;;;;;;;;5021750;28;20998;-48
2021/03/14 10:39:08;;;;;;;3.50;1.38;;;;;;;;;;5026227;28;20037;-52
2021/03/14 10:41:45;;;;;;;2.47;1.23;;;;;;;;;;5023852;28;20061;-54
2021/03/14 10:44:11;;;;;;;15.43;3.45;;;;;;;;;;5021450;28;20070;-57
2021/03/14 10:46:39;;;;;;;3.15;1.77;;;;;;;;;;5023740;28;20041;-54
2021/03/14 10:49:09;;;;;;;3.72;1.50;;;;;;;;;;5026293;28;20434;-54
2021/03/14 10:51:35;;;;;;;5.70;2.60;;;;;;;;;;5026106;28;20061;-59
2021/03/14 10:54:01;;;;;;;3.83;1.90;;;;;;;;;;5025666;28;20521;-60
2021/03/14 10:56:40;;;;;;;2.22;1.23;;;;;;;;;;5023310;28;20065;-57
2021/03/14 10:59:06;;;;;;;1.77;1.05;;;;;;;;;;5006116;28;20527;-51
2021/03/14 11:01:40;;;;;;;7.93;2.65;;;;;;;;;;5005913;28;20384;-60
2021/03/14 11:04:07;;;;;;;5.68;1.00;;;;;;;;;;5006536;28;20045;-54
2021/03/14 11:06:33;;;;;;;14.48;3.72;;;;;;;;;;5006261;28;20061;-55
2021/03/14 11:08:58;;;;;;;5.25;2.15;;;;;;;;;;5006202;28;20476;-53
2021/03/14 11:11:35;;;;;;;4.47;2.03;;;;;;;;;;5013265;28;20052;-49
2021/03/14 11:14:00;;;;;;;1.40;0.52;;;;;;;;;;5017896;28;20032;-57
2021/03/14 11:16:26;;;;;;;6.20;2.08;;;;;;;;;;5018383;28;20025;-54
2021/03/14 11:19:04;;;;;;;17.15;2.45;;;;;;;;;;5025811;28;20037;-52
2021/03/14 11:21:29;;;;;;;2.40;1.65;;;;;;;;;;5025257;28;20026;-52
2021/03/14 11:23:54;;;;;;;3.13;1.35;;;;;;;;;;5022847;28;20459;-51
2021/03/14 11:26:20;;;;;;;5.68;1.70;;;;;;;;;;5006379;28;20099;-53
2021/03/14 11:28:46;;;;;;;9.18;3.08;;;;;;;;;;5025693;28;20576;-52
2021/03/14 11:31:11;;;;;;;7.40;2.72;;;;;;;;;;5025313;28;20037;-51
2021/03/14 11:33:36;;;;;;;12.75;2.70;;;;;;;;;;5025418;28;20034;-53
2021/03/14 11:36:02;;;;;;;3.47;1.50;;;;;;;;;;5025081;28;20135;-59
2021/03/14 11:38:27;;;;;;;7.60;2.67;;;;;;;;;;5028377;28;20099;-53
2021/03/14 11:40:56;;;;;;;2.63;1.67;;;;;;;;;;5029475;28;20044;-50
2021/03/14 11:43:21;;;;;;;6.38;1.98;;;;;;;;;;5029336;28;20041;-51
2021/03/14 11:45:47;;;;;;;4.13;2.33;;;;;;;;;;5029199;28;20072;-53
2021/03/14 11:48:12;;;;;;;3.42;1.85;;;;;;;;;;5029264;28;20159;-54
2021/03/14 11:50:37;;;;;;;7.72;2.33;;;;;;;;;;5029191;28;20466;-49
2021/03/14 11:53:03;;;;;;;6.18;1.92;;;;;;;;;;5026781;28;20107;-50
2021/03/14 11:55:28;;;;;;;7.68;1.70;;;;;;;;;;5029223;28;20053;-52
2021/03/14 11:57:53;;;;;;;4.22;2.65;;;;;;;;;;5029036;28;20076;-54
2021/03/14 12:00:19;;;;;;;8.18;2.90;;;;;;;;;;5029255;28;20091;-53
2021/03/14 12:02:44;;;;;;;7.28;2.53;;;;;;;;;;5028311;28;20409;-54
2021/03/14 12:05:10;;;;;;;2.55;1.42;;;;;;;;;;5017424;28;20105;-56
2021/03/14 12:07:36;;;;;;;3.53;1.75;;;;;;;;;;5019977;28;20034;-55
2021/03/14 12:10:01;;;;;;;2.70;1.30;;;;;;;;;;5016108;28;20477;-58
2021/03/14 12:12:27;;;;;;;6.55;2.17;;;;;;;;;;5018129;28;20084;-51
2021/03/14 12:14:52;;;;;;;6.03;2.08;;;;;;;;;;5022438;28;20026;-56
2021/03/14 12:17:17;;;;;;;2.45;1.13;;;;;;;;;;5020209;28;20429;-56
2021/03/14 12:19:42;;;;;;;4.18;1.52;;;;;;;;;;5024916;28;20033;-52
2021/03/14 12:22:09;;;;;;;7.75;2.60;;;;;;;;;;5024747;28;20045;-54
2021/03/14 12:24:34;;;;;;;7.40;2.42;;;;;;;;;;5013424;28;20484;-56
2021/03/14 12:26:59;;;;;;;4.97;2.58;;;;;;;;;;5022401;28;20029;-57
2021/03/14 12:29:25;;;;;;;4.63;3.33;;;;;;;;;;5019119;28;20056;-49
2021/03/14 12:31:50;;;;;;;2.22;1.50;;;;;;;;;;5025877;28;20666;-54
2021/03/14 12:34:15;;;;;;;3.90;2.92;;;;;;;;;;5025078;28;20116;-58
2021/03/14 12:36:40;;;;;;;2.13;1.38;;;;;;;;;;5023150;28;20040;-58
2021/03/14 12:39:07;;;;;;;2.90;1.80;;;;;;;;;;5026560;28;20043;-55
2021/03/14 12:41:33;;;;;;;1.90;1.48;;;;;;;;;;5026614;28;20040;-54
2021/03/14 12:43:59;;;;;;;7.32;3.70;;;;;;;;;;5027074;28;20617;-55
2021/03/14 12:46:24;;;;;;;12.80;3.60;;;;;;;;;;5027369;28;20037;-56
2021/03/14 12:48:50;;;;;;;4.15;1.88;;;;;;;;;;5027803;28;20029;-52
2021/03/14 12:51:15;;;;;;;6.00;1.88;;;;;;;;;;5027701;28;20052;-54
2021/03/14 12:53:40;;;;;;;8.82;2.42;;;;;;;;;;5023304;28;20025;-55
2021/03/14 12:56:06;;;;;;;4.15;1.98;;;;;;;;;;5028130;28;20547;-56
2021/03/14 12:58:31;;;;;;;3.22;1.30;;;;;;;;;;5027912;28;20025;-53
2021/03/14 13:00:56;;;;;;;9.43;2.83;;;;;;;;;;5028166;28;20031;-54
2021/03/14 13:03:22;;;;;;;5.03;2.90;;;;;;;;;;5027509;28;20061;-52
2021/03/14 13:05:47;;;;;;;11.88;2.35;;;;;;;;;;5027513;28;20025;-57
2021/03/14 13:08:12;;;;;;;14.98;2.60;;;;;;;;;;5027896;28;20040;-50
2021/03/14 13:10:38;;;;;;;7.00;3.03;;;;;;;;;;5009851;28;20383;-52
2021/03/14 13:13:04;;;;;;;10.25;2.05;;;;;;;;;;5027583;28;20116;-54
2021/03/14 13:15:30;;;;;;;13.02;4.93;;;;;;;;;;5027714;28;20079;-58
2021/03/14 13:17:55;;;;;;;13.45;3.00;;;;;;;;;;5025854;28;20391;-54
2021/03/14 13:20:20;;;;;;;11.43;3.10;;;;;;;;;;5027509;28;20037;-54
2021/03/14 13:22:46;;;;;;;6.10;1.70;;;;;;;;;;5027839;28;20116;-54
2021/03/14 13:25:11;;;;;;;9.13;2.28;;;;;;;;;;5027691;28;20036;-52
2021/03/14 13:27:37;;;;;;;6.03;2.42;;;;;;;;;;5027476;28;20490;-50
2021/03/14 13:30:03;;;;;;;7.43;2.63;;;;;;;;;;5023539;28;20038;-56
2021/03/14 13:32:28;;;;;;;7.30;2.45;;;;;;;;;;5026832;28;20033;-50
2021/03/14 13:34:54;;;;;;;9.07;3.53;;;;;;;;;;5027228;28;20387;-49
2021/03/14 13:37:20;;;;;;;4.35;2.50;;;;;;;;;;5026936;28;20779;-56
2021/03/14 13:39:46;;;;;;;6.88;3.67;;;;;;;;;;5027171;28;20514;-57
2021/03/14 13:42:11;;;;;;;14.50;3.17;;;;;;;;;;5027170;28;20034;-55
2021/03/14 13:44:36;;;;;;;3.67;2.35;;;;;;;;;;5027400;28;20068;-54
2021/03/14 13:47:01;;;;;;;21.98;3.58;;;;;;;;;;5027267;28;20033;-57
2021/03/14 13:49:27;;;;;;;2.15;1.38;;;;;;;;;;5027279;28;20361;-50
2021/03/14 13:51:52;;;;;;;4.18;2.15;;;;;;;;;;5026964;28;20853;-53
2021/03/14 13:54:17;;;;;;;6.93;3.90;;;;;;;;;;5026911;28;20451;-58
2021/03/14 13:56:43;;;;;;;5.38;3.15;;;;;;;;;;5027358;28;20034;-51
2021/03/14 13:59:08;;;;;;;6.45;3.15;;;;;;;;;;5026564;28;20091;-51
2021/03/14 14:01:34;;;;;;;9.15;4.03;;;;;;;;;;5025752;28;20467;-55
2021/03/14 14:04:00;;;;;;;9.18;4.93;;;;;;;;;;5026715;28;20076;-52
2021/03/14 14:06:25;;;;;;;9.80;5.88;;;;;;;;;;5021341;28;20033;-53
2021/03/14 14:08:50;;;;;;;7.60;5.10;;;;;;;;;;5020355;28;20022;-53
2021/03/14 14:11:16;;;;;;;11.40;3.17;;;;;;;;;;5024953;28;20040;-54
2021/03/14 14:13:41;;;;;;;5.75;3.40;;;;;;;;;;5026294;28;20099;-53
2021/03/14 14:16:06;;;;;;;6.22;4.32;;;;;;;;;;5024556;28;20108;-54
2021/03/14 14:18:32;;;;;;;12.18;4.20;;;;;;;;;;5026405;28;20025;-59
2021/03/14 14:20:57;;;;;;;6.80;3.30;;;;;;;;;;5022881;28;20041;-54
2021/03/14 14:23:22;;;;;;;5.13;2.35;;;;;;;;;;5026171;28;20579;-52
2021/03/14 14:25:48;;;;;;;4.55;2.72;;;;;;;;;;5024851;28;20040;-57
2021/03/14 14:28:14;;;;;;;5.32;2.65;;;;;;;;;;5025950;28;20047;-56
2021/03/14 14:30:39;;;;;;;7.00;2.80;;;;;;;;;;5026054;28;20422;-52
2021/03/14 14:33:05;;;;;;;8.57;3.53;;;;;;;;;;5026403;28;20318;-53
2021/03/14 14:35:31;;;;;;;8.73;3.25;;;;;;;;;;5024668;28;20017;-53
2021/03/14 14:37:56;;;;;;;11.65;3.88;;;;;;;;;;5018965;28;20513;-52
2021/03/14 14:40:22;;;;;;;8.00;2.30;;;;;;;;;;5025853;28;20021;-54
2021/03/14 14:42:47;;;;;;;13.80;2.05;;;;;;;;;;5026349;28;20038;-56
2021/03/14 14:45:13;;;;;;;6.50;3.25;;;;;;;;;;5026118;28;20021;-53
2021/03/14 14:47:38;;;;;;;5.22;2.63;;;;;;;;;;5026036;28;20060;-55
2021/03/14 14:50:05;;;;;;;5.40;2.20;;;;;;;;;;5025877;28;20041;-55
2021/03/14 14:52:30;;;;;;;2.85;1.35;;;;;;;;;;5025639;28;20483;-58
2021/03/14 14:54:56;;;;;;;8.48;1.63;;;;;;;;;;5022788;28;20017;-50
2021/03/14 14:57:21;;;;;;;6.90;3.42;;;;;;;;;;5025656;28;20061;-56
2021/03/14 14:59:46;;;;;;;4.47;2.28;;;;;;;;;;5025740;28;20464;-58
2021/03/14 15:02:11;;;;;;;8.50;2.78;;;;;;;;;;5025249;28;20053;-51
2021/03/14 15:04:37;;;;;;;9.63;6.47;;;;;;;;;;5025599;28;20437;-54
2021/03/14 15:07:03;;;;;;;15.77;3.88;;;;;;;;;;5026145;28;20416;-59
2021/03/14 15:09:28;;;;;;;4.53;1.83;;;;;;;;;;5025605;28;20030;-51
2021/03/14 15:11:54;;;;;;;6.85;2.67;;;;;;;;;;5011196;28;20042;-54
2021/03/14 15:14:19;;;;;;;3.25;1.35;;;;;;;;;;5032311;28;20030;-60
2021/03/14 15:16:44;;;;;;;9.80;1.35;;;;;;;;;;5030859;28;20029;-57
2021/03/14 15:19:10;;;;;;;3.53;1.55;;;;;;;;;;5031022;28;20051;-56
2021/03/14 15:21:35;;;;;;;1.77;0.93;;;;;;;;;;5031722;28;20128;-56
2021/03/14 15:24:00;;;;;;;2.97;1.55;;;;;;;;;;5032088;28;20669;-59
2021/03/14 15:26:26;;;;;;;4.63;2.03;;;;;;;;;;5032235;28;20037;-56
2021/03/14 15:28:51;;;;;;;3.17;1.35;;;;;;;;;;5031817;28;20029;-59
2021/03/14 15:31:17;;;;;;;9.43;1.50;;;;;;;;;;5014241;28;20163;-57
2021/03/14 15:33:44;;;;;;;1.45;1.17;;;;;;;;;;5031963;28;20029;-55
2021/03/14 15:36:10;;;;;;;3.42;1.15;;;;;;;;;;5030224;28;20038;-55
2021/03/14 15:38:35;;;;;;;5.25;1.83;;;;;;;;;;5031836;28;20091;-57
2021/03/14 15:41:01;;;;;;;8.23;3.20;;;;;;;;;;5032208;28;20061;-56
2021/03/14 15:43:26;;;;;;;6.93;2.63;;;;;;;;;;5031823;28;20037;-49
2021/03/14 15:45:51;;;;;;;5.85;3.47;;;;;;;;;;5031916;28;20029;-57
2021/03/14 15:48:17;;;;;;;9.38;2.35;;;;;;;;;;5031450;28;20079;-58
2021/03/14 15:50:42;;;;;;;6.18;1.17;;;;;;;;;;5031987;28;20068;-54
2021/03/14 15:53:07;;;;;;;5.15;2.83;;;;;;;;;;5032015;28;20450;-55
2021/03/14 15:55:33;;;;;;;7.22;4.53;;;;;;;;;;5031714;28;20064;-58
2021/03/14 15:57:59;;;;;;;10.45;6.63;;;;;;;;;;5031986;28;20083;-52
2021/03/14 16:00:24;;;;;;;11.98;5.45;;;;;;;;;;5031673;28;20418;-57
2021/03/14 16:02:49;;;;;;;17.25;4.53;;;;;;;;;;5024052;28;20359;-55
2021/03/14 16:05:16;;;;;;;8.20;3.38;;;;;;;;;;5031969;28;20033;-54
2021/03/14 16:07:41;;;;;;;28.38;25.38;;;;;;;;;;5026284;28;20108;-56
2021/03/14 16:10:07;;;;;;;17.10;5.13;;;;;;;;;;5028547;28;20038;-53
2021/03/14 16:12:32;;;;;;;7.80;2.83;;;;;;;;;;5031788;28;20334;-54
2021/03/14 16:14:58;;;;;;;18.08;3.85;;;;;;;;;;5031345;28;20029;-53
2021/03/14 16:17:23;;;;;;;11.45;2.35;;;;;;;;;;5029929;28;20037;-58
2021/03/14 16:19:48;;;;;;;5.03;2.67;;;;;;;;;;5031462;28;20081;-58